Terminal Aerodrome Forecast
Issued by NWS Cleveland, OH

Home | Current Version | Previous Version | Graphics & Text | Print | Product List | Glossary On
Versions: 1 2 3 4 5 6 7 8 9 10 11 12 13 14 15 16 17 18 19 20 21 22 23 24 25 26 27 28 29 30
732
FTUS41 KCLE 200249 AAB
TAFCLE
TAF AMD
KCLE 200249Z 2003/2106 28014G24KT P6SM VCSH BKN035
     FM200600 26012G22KT P6SM BKN035
     FM201000 22013KT P6SM SCT250
     FM201800 22016G25KT P6SM FEW250=

USA.gov is the U.S. government's official web portal to all federal, state and local government web resources and services.